Time;durP1;ratioP1;P1;durP2;ratioP2;P2;SDS_P1;SDS_P2;PMS_P1;PMS_P2;Temp;Humidity;BMP_temperature;BMP_pressure;BME280_temperature;BME280_humidity;BME280_pressure;Samples;Min_cycle;Max_cycle;Signal;HPM_P1;HPM_P2
2023/06/30 00:01:11;;;;;;;1.63;0.60;;;;;;;14.10;99.55;99879.09;5028146;28;20361;-61
2023/06/30 00:03:45;;;;;;;1.27;0.57;;;;;;;14.13;100.00;99879.00;5010594;28;20307;-62
2023/06/30 00:06:17;;;;;;;0.50;0.50;;;;;;;14.11;99.38;99874.72;5031043;28;20774;-60
2023/06/30 00:08:48;;;;;;;0.40;0.40;;;;;;;14.05;99.83;99870.53;5021382;28;20284;-60
2023/06/30 00:11:23;;;;;;;0.40;0.40;;;;;;;13.81;99.65;99841.63;5031209;28;20322;-60
2023/06/30 00:13:55;;;;;;;0.73;0.50;;;;;;;14.06;99.67;99882.78;5021104;28;20289;-60
2023/06/30 00:16:25;;;;;;;3.33;0.80;;;;;;;13.94;100.00;99878.81;5031207;28;20373;-60
2023/06/30 00:18:56;;;;;;;0.83;0.50;;;;;;;14.04;100.00;99884.59;5020869;28;20428;-60
2023/06/30 00:21:29;;;;;;;0.80;0.40;;;;;;;14.20;100.00;99872.63;5030913;28;20862;-58
2023/06/30 00:24:03;;;;;;;1.27;0.50;;;;;;;14.36;98.64;99874.66;5020611;28;20379;-61
2023/06/30 00:26:34;;;;;;;2.47;0.50;;;;;;;14.40;97.02;99865.72;5031801;28;20271;-60
2023/06/30 00:29:05;;;;;;;1.97;0.40;;;;;;;14.47;95.58;99877.72;5016172;28;20298;-61
2023/06/30 00:31:36;;;;;;;0.90;0.50;;;;;;;14.47;95.49;99882.97;5026237;28;20315;-59
2023/06/30 00:34:06;;;;;;;0.57;0.40;;;;;;;14.44;95.17;99862.06;5030865;28;20758;-62
2023/06/30 00:36:39;;;;;;;1.77;0.60;;;;;;;14.46;95.17;99894.41;5020943;28;20357;-58
2023/06/30 00:39:10;;;;;;;2.40;0.60;;;;;;;14.61;96.74;99875.44;5031124;28;20291;-60
2023/06/30 00:41:40;;;;;;;1.10;0.50;;;;;;;14.75;96.57;99867.03;5021464;28;20283;-60
2023/06/30 00:44:11;;;;;;;1.50;0.40;;;;;;;14.99;94.07;99874.84;5031141;28;20291;-61
2023/06/30 00:46:42;;;;;;;1.20;0.57;;;;;;;14.89;93.85;99871.72;5020259;28;20284;-57
2023/06/30 00:49:13;;;;;;;3.17;0.40;;;;;;;14.80;93.21;99870.34;5030186;28;20317;-58
2023/06/30 00:51:45;;;;;;;3.23;0.40;;;;;;;14.89;92.96;99882.25;5019156;28;20279;-61
2023/06/30 00:54:17;;;;;;;0.50;0.40;;;;;;;14.96;93.91;99867.94;5030033;28;20283;-59
2023/06/30 00:56:50;;;;;;;1.37;0.40;;;;;;;15.21;93.26;99874.81;5020837;28;20287;-59
2023/06/30 00:59:21;;;;;;;3.70;0.50;;;;;;;15.32;91.60;99883.09;5030005;28;20282;-60
2023/06/30 01:01:58;;;;;;;0.40;0.40;;;;;;;15.32;89.28;99878.72;5020518;28;20291;-60
2023/06/30 01:04:37;;;;;;;0.60;0.50;;;;;;;15.53;91.64;99866.41;5030477;28;20315;-60
2023/06/30 01:07:15;;;;;;;0.40;0.40;;;;;;;15.49;89.01;99864.81;5021665;28;20287;-58
2023/06/30 01:09:53;;;;;;;6.15;0.40;;;;;;;15.51;90.04;99868.25;5029126;28;20122;-59
2023/06/30 01:12:25;;;;;;;1.43;0.40;;;;;;;15.64;90.39;99868.56;5040063;28;20055;-58
2023/06/30 01:14:57;;;;;;;5.10;0.67;;;;;;;15.59;87.02;99853.88;5030307;28;20740;-59
2023/06/30 01:17:28;;;;;;;2.57;0.50;;;;;;;15.65;88.49;99866.78;5039685;28;20837;-60
2023/06/30 01:20:00;;;;;;;1.87;0.33;;;;;;;15.59;88.88;99864.44;5029526;28;20278;-60
2023/06/30 01:22:40;;;;;;;3.33;0.40;;;;;;;15.68;89.94;99859.63;5039714;28;20714;-60
2023/06/30 01:25:13;;;;;;;1.30;0.75;;;;;;;15.34;89.56;99811.97;5029081;28;20274;-60
2023/06/30 01:27:44;;;;;;;3.40;0.43;;;;;;;15.56;86.41;99859.31;5027398;28;20109;-58
2023/06/30 01:30:16;;;;;;;4.83;0.50;;;;;;;15.58;88.31;99862.72;5038442;28;20765;-58
2023/06/30 01:32:47;;;;;;;4.13;0.60;;;;;;;15.44;88.27;99866.78;5027999;28;20291;-59
2023/06/30 01:35:18;;;;;;;4.20;0.53;;;;;;;15.39;88.81;99867.91;5038043;28;20299;-61
2023/06/30 01:37:51;;;;;;;2.40;0.40;;;;;;;15.28;88.04;99876.28;5027731;28;20307;-60
2023/06/30 01:40:24;;;;;;;0.97;0.67;;;;;;;15.24;88.90;99872.03;5035202;28;20323;-58
2023/06/30 01:42:57;;;;;;;0.60;0.40;;;;;;;15.27;89.22;99858.75;5027543;28;20336;-58
2023/06/30 01:45:30;;;;;;;2.00;0.40;;;;;;;15.23;88.95;99844.03;5038595;28;20290;-59
2023/06/30 01:48:01;;;;;;;0.60;0.30;;;;;;;15.60;89.77;99839.78;5018992;28;20386;-60
2023/06/30 01:50:32;;;;;;;0.37;0.30;;;;;;;15.75;88.44;99807.56;5029866;28;20284;-59
2023/06/30 01:53:05;;;;;;;0.50;0.40;;;;;;;15.98;88.00;99829.38;5027957;28;20645;-59
2023/06/30 01:55:35;;;;;;;1.80;0.43;;;;;;;16.02;86.89;99830.94;5036059;28;20293;-59
2023/06/30 01:58:06;;;;;;;0.77;0.30;;;;;;;16.03;85.46;99832.66;5038990;28;20283;-59
2023/06/30 02:00:37;;;;;;;1.30;0.30;;;;;;;16.15;85.62;99837.38;5030665;28;20381;-59
2023/06/30 02:03:07;;;;;;;2.10;0.50;;;;;;;16.19;86.72;99841.56;5038835;28;21131;-58
2023/06/30 02:05:38;;;;;;;3.80;0.47;;;;;;;16.28;85.54;99835.88;5026305;28;20356;-57
2023/06/30 02:08:10;;;;;;;1.60;0.70;;;;;;;16.31;84.50;99838.34;5038625;28;20332;-59
2023/06/30 02:10:41;;;;;;;0.30;0.30;;;;;;;16.21;83.45;99842.34;5024774;28;20399;-60
2023/06/30 02:13:11;;;;;;;0.30;0.30;;;;;;;16.22;83.75;99844.03;5037365;28;20314;-59
2023/06/30 02:15:42;;;;;;;0.30;0.30;;;;;;;16.29;81.08;99840.19;5027997;28;20291;-60
2023/06/30 02:18:13;;;;;;;1.60;0.30;;;;;;;16.33;83.95;99833.88;5038315;28;20678;-59
2023/06/30 02:20:44;;;;;;;0.50;0.30;;;;;;;16.37;83.23;99842.47;5028434;28;20340;-59
2023/06/30 02:23:16;;;;;;;0.47;0.30;;;;;;;16.39;83.29;99830.06;5037100;28;20275;-60
2023/06/30 02:25:46;;;;;;;0.20;0.20;;;;;;;16.51;81.27;99841.84;5024669;28;20329;-60
2023/06/30 02:28:17;;;;;;;5.20;0.40;;;;;;;16.54;82.17;99828.50;5037670;28;20389;-60
2023/06/30 02:30:47;;;;;;;1.00;0.57;;;;;;;16.58;81.03;99819.50;5027434;28;20283;-61
2023/06/30 02:33:19;;;;;;;0.90;0.30;;;;;;;16.65;82.26;99825.31;5037842;28;20275;-60
2023/06/30 02:35:50;;;;;;;1.17;0.40;;;;;;;16.71;82.48;99828.53;5027629;28;20338;-58
2023/06/30 02:38:22;;;;;;;0.40;0.30;;;;;;;16.79;80.25;99822.91;5037958;28;20290;-60
2023/06/30 02:40:53;;;;;;;0.53;0.27;;;;;;;16.53;79.48;99779.31;5026715;28;20402;-59
2023/06/30 02:43:24;;;;;;;1.50;0.30;;;;;;;16.89;79.81;99818.03;5037627;28;20290;-61
2023/06/30 02:45:55;;;;;;;0.97;0.30;;;;;;;16.94;77.91;99813.38;5025914;28;20295;-61
2023/06/30 02:48:27;;;;;;;1.60;0.30;;;;;;;17.06;77.28;99802.22;5037693;28;20290;-60
2023/06/30 02:50:58;;;;;;;3.57;0.40;;;;;;;17.10;79.01;99816.09;5027875;28;20285;-58
2023/06/30 02:53:30;;;;;;;0.30;0.27;;;;;;;17.13;78.84;99816.81;5039860;28;20795;-58
2023/06/30 02:56:01;;;;;;;0.53;0.30;;;;;;;16.90;78.91;99811.81;5017782;28;20291;-60
2023/06/30 02:58:36;;;;;;;2.83;0.30;;;;;;;16.79;78.44;99800.00;5031728;28;20291;-58
2023/06/30 03:01:07;;;;;;;4.23;0.40;;;;;;;16.74;80.50;99799.34;5018749;28;20279;-59
2023/06/30 03:03:39;;;;;;;2.13;0.60;;;;;;;16.74;81.16;99809.06;5022213;28;20342;-58
2023/06/30 03:06:10;;;;;;;1.33;0.30;;;;;;;16.45;81.22;99813.09;5032256;28;20303;-59
2023/06/30 03:08:45;;;;;;;4.10;0.57;;;;;;;16.58;83.58;99794.00;5022857;28;20289;-61
2023/06/30 03:11:16;;;;;;;2.40;0.47;;;;;;;16.75;82.76;99795.81;5032106;28;20331;-58
2023/06/30 03:13:46;;;;;;;0.33;0.33;;;;;;;16.84;83.05;99794.50;5022394;28;20372;-60
2023/06/30 03:16:17;;;;;;;1.87;0.40;;;;;;;16.62;80.19;99794.69;5032802;28;20769;-58
2023/06/30 03:18:48;;;;;;;4.60;0.40;;;;;;;16.45;80.32;99779.69;5022087;28;20345;-59
2023/06/30 03:21:18;;;;;;;2.83;0.37;;;;;;;16.42;81.56;99768.44;5031932;28;22059;-61
2023/06/30 03:23:51;;;;;;;1.17;0.40;;;;;;;16.59;82.67;99800.97;5021874;28;20567;-60
2023/06/30 03:26:22;;;;;;;3.00;0.30;;;;;;;16.64;80.47;99787.56;5040419;28;20327;-59
2023/06/30 03:28:52;;;;;;;1.17;0.57;;;;;;;16.75;79.44;99811.63;5029256;28;20305;-60
2023/06/30 03:31:23;;;;;;;1.60;0.30;;;;;;;16.59;79.50;99813.28;5041168;28;20294;-60
2023/06/30 03:33:54;;;;;;;2.47;0.40;;;;;;;16.27;81.33;99781.41;5029818;28;20310;-60
2023/06/30 03:36:24;;;;;;;0.70;0.30;;;;;;;16.45;81.47;99813.09;5041205;28;20266;-58
2023/06/30 03:38:56;;;;;;;3.67;0.40;;;;;;;16.51;82.92;99816.31;5031167;28;25265;-60
2023/06/30 03:41:28;;;;;;;2.67;0.60;;;;;;;16.63;82.47;99821.94;5016830;28;20361;-61
2023/06/30 03:43:59;;;;;;;0.30;0.30;;;;;;;16.54;80.31;99823.22;5018082;28;20345;-59
2023/06/30 03:46:29;;;;;;;2.87;0.30;;;;;;;16.62;81.96;99826.34;5031348;28;20298;-61
2023/06/30 03:49:00;;;;;;;5.87;0.50;;;;;;;16.47;80.78;99784.88;5020925;28;20295;-58
2023/06/30 03:51:30;;;;;;;3.67;0.73;;;;;;;16.47;80.17;99800.69;5031801;28;20303;-60
2023/06/30 03:54:03;;;;;;;0.50;0.30;;;;;;;16.55;82.16;99809.13;5030633;28;20358;-60
2023/06/30 03:56:36;;;;;;;0.67;0.33;;;;;;;16.53;81.16;99806.53;5036909;28;21206;-59
2023/06/30 03:59:07;;;;;;;1.87;0.30;;;;;;;16.42;81.95;99797.44;5040821;28;20389;-60
2023/06/30 04:01:39;;;;;;;2.40;0.30;;;;;;;16.48;82.22;99791.88;5029831;28;20299;-61
2023/06/30 04:04:11;;;;;;;0.93;0.20;;;;;;;16.51;81.31;99781.19;5039387;28;20761;-62
2023/06/30 04:06:44;;;;;;;1.27;0.30;;;;;;;16.51;81.91;99787.28;5030043;28;20283;-59
2023/06/30 04:09:16;;;;;;;1.90;0.40;;;;;;;16.56;80.90;99784.44;5040453;28;20286;-61
2023/06/30 04:11:48;;;;;;;2.93;0.40;;;;;;;16.60;82.59;99780.75;5030188;28;21058;-59
2023/06/30 04:14:21;;;;;;;1.30;0.40;;;;;;;16.74;79.44;99775.63;5039961;28;20287;-59
2023/06/30 04:16:52;;;;;;;3.40;0.77;;;;;;;16.58;80.56;99772.03;5029817;28;20287;-60
2023/06/30 04:19:26;;;;;;;1.97;0.40;;;;;;;16.55;81.25;99761.66;5039374;28;20286;-60
2023/06/30 04:21:57;;;;;;;6.67;0.50;;;;;;;16.25;80.09;99721.78;5029623;28;20816;-61
2023/06/30 04:24:32;;;;;;;1.33;0.30;;;;;;;16.39;79.26;99767.63;5039964;28;20328;-60
2023/06/30 04:27:03;;;;;;;0.30;0.30;;;;;;;16.36;80.82;99773.06;5030003;28;20279;-60
2023/06/30 04:29:34;;;;;;;3.63;0.50;;;;;;;16.51;81.13;99754.81;5040424;28;20275;-60
2023/06/30 04:32:05;;;;;;;0.30;0.30;;;;;;;16.68;81.96;99762.75;5029999;28;20286;-59
2023/06/30 04:34:36;;;;;;;0.73;0.70;;;;;;;16.91;81.70;99758.13;5033036;28;20290;-61
2023/06/30 04:37:07;;;;;;;0.30;0.30;;;;;;;16.91;80.22;99755.50;5039995;28;20375;-59
2023/06/30 04:39:40;;;;;;;0.47;0.30;;;;;;;16.73;80.00;99750.19;5029188;28;20303;-59
2023/06/30 04:42:11;;;;;;;2.33;0.30;;;;;;;16.65;80.52;99768.19;5039920;28;20399;-61
2023/06/30 04:44:42;;;;;;;6.43;0.40;;;;;;;16.51;80.35;99754.81;5029477;28;20278;-61
2023/06/30 04:47:13;;;;;;;0.90;0.30;;;;;;;16.24;82.35;99725.34;5040012;28;20368;-61
2023/06/30 04:49:43;;;;;;;0.30;0.20;;;;;;;16.50;82.04;99753.06;5028823;28;21371;-63
2023/06/30 04:52:14;;;;;;;0.23;0.23;;;;;;;16.55;81.56;99748.47;5039822;28;20627;-58
2023/06/30 04:54:46;;;;;;;3.70;0.43;;;;;;;16.56;82.30;99747.53;5028948;28;20283;-61
2023/06/30 04:57:17;;;;;;;5.03;0.33;;;;;;;16.37;81.20;99702.72;5039064;28;20298;-59
2023/06/30 04:59:47;;;;;;;5.20;0.90;;;;;;;16.58;81.64;99735.97;5028707;28;20282;-61
2023/06/30 05:02:18;;;;;;;0.90;0.30;;;;;;;16.56;82.47;99727.25;5039842;28;20941;-62
2023/06/30 05:04:49;;;;;;;2.33;0.50;;;;;;;16.33;84.20;99720.50;5029021;28;20282;-59
2023/06/30 05:07:19;;;;;;;0.87;0.33;;;;;;;16.33;85.00;99715.22;5039386;28;20283;-59
2023/06/30 05:09:51;;;;;;;1.07;0.43;;;;;;;16.39;85.15;99716.69;5028761;28;20301;-59
2023/06/30 05:12:22;;;;;;;4.03;0.60;;;;;;;16.46;85.70;99719.91;5039698;28;20319;-60
2023/06/30 05:14:53;;;;;;;4.20;0.70;;;;;;;16.51;83.68;99717.88;5029009;28;20757;-60
2023/06/30 05:17:24;;;;;;;1.53;0.50;;;;;;;16.59;83.57;99715.72;5039788;28;20764;-61
2023/06/30 05:19:54;;;;;;;9.23;0.60;;;;;;;16.56;83.17;99721.16;5028418;28;20287;-62
2023/06/30 05:22:25;;;;;;;2.27;0.57;;;;;;;16.52;83.46;99714.31;5039141;28;20305;-59
2023/06/30 05:24:57;;;;;;;2.47;0.60;;;;;;;16.47;83.86;99721.59;5028867;28;20292;-60
2023/06/30 05:27:28;;;;;;;2.10;0.50;;;;;;;16.38;82.53;99702.66;5036208;28;20344;-58
2023/06/30 05:29:59;;;;;;;5.47;0.80;;;;;;;16.37;82.41;99732.59;5028384;28;20472;-60
2023/06/30 05:32:30;;;;;;;1.50;0.60;;;;;;;16.43;83.27;99730.59;5039494;28;20279;-60
2023/06/30 05:35:01;;;;;;;2.10;0.60;;;;;;;16.39;84.56;99728.09;5028103;28;20286;-62
2023/06/30 05:37:32;;;;;;;2.87;0.70;;;;;;;16.20;82.71;99703.56;5038899;28;20340;-60
2023/06/30 05:40:04;;;;;;;0.90;0.60;;;;;;;15.85;83.76;99650.78;5015293;28;20278;-60
2023/06/30 05:42:35;;;;;;;2.43;0.70;;;;;;;16.32;82.46;99747.78;5027448;28;20287;-60
2023/06/30 05:45:06;;;;;;;1.10;0.63;;;;;;;16.28;82.63;99743.59;5029150;28;20290;-60
2023/06/30 05:47:38;;;;;;;2.53;0.67;;;;;;;16.35;84.11;99739.72;5020172;28;20320;-59
2023/06/30 05:50:09;;;;;;;0.60;0.60;;;;;;;16.42;82.31;99755.25;5029032;28;20278;-59
2023/06/30 05:52:40;;;;;;;1.07;0.83;;;;;;;16.13;82.85;99760.16;5018776;28;20291;-59
2023/06/30 05:55:13;;;;;;;1.10;0.70;;;;;;;15.89;84.13;99762.13;5034545;28;20718;-61
2023/06/30 05:57:43;;;;;;;2.53;0.83;;;;;;;15.87;84.73;99764.81;5027656;28;20285;-61
2023/06/30 06:00:15;;;;;;;1.60;0.90;;;;;;;15.77;86.37;99776.72;5037735;28;20282;-62
2023/06/30 06:02:46;;;;;;;3.37;1.00;;;;;;;15.95;85.34;99777.69;5028082;28;20283;-59
2023/06/30 06:05:17;;;;;;;6.13;0.80;;;;;;;16.08;85.86;99775.31;5037600;28;20337;-60
2023/06/30 06:07:47;;;;;;;0.80;0.80;;;;;;;16.07;83.48;99781.50;5027995;28;20402;-62
2023/06/30 06:10:20;;;;;;;2.43;1.00;;;;;;;15.80;85.41;99776.59;5037701;28;20383;-61
2023/06/30 06:12:53;;;;;;;1.67;0.90;;;;;;;15.69;86.59;99760.38;5027448;28;20287;-61
2023/06/30 06:15:23;;;;;;;1.00;0.80;;;;;;;15.83;85.99;99789.63;5038297;28;20370;-63
2023/06/30 06:17:54;;;;;;;2.77;0.80;;;;;;;15.75;84.76;99781.22;5027634;28;20378;-61
2023/06/30 06:20:24;;;;;;;3.67;1.17;;;;;;;15.91;86.86;99787.47;5038535;28;20298;-59
2023/06/30 06:22:55;;;;;;;2.37;1.20;;;;;;;15.98;85.07;99781.94;5027347;28;20277;-63
2023/06/30 06:25:27;;;;;;;1.70;1.00;;;;;;;16.20;84.35;99793.19;5037389;28;20290;-62
2023/06/30 06:27:58;;;;;;;1.63;1.03;;;;;;;16.26;82.23;99792.03;5029883;28;20315;-61
2023/06/30 06:30:29;;;;;;;2.33;1.17;;;;;;;16.11;84.05;99783.94;5041993;28;20279;-63
2023/06/30 06:32:59;;;;;;;4.47;1.23;;;;;;;15.80;83.88;99805.56;5032154;28;20278;-60
2023/06/30 06:35:30;;;;;;;3.03;1.23;;;;;;;15.61;84.62;99809.91;5042564;28;20283;-58
2023/06/30 06:38:00;;;;;;;12.03;1.50;;;;;;;15.57;84.56;99787.25;5031465;28;21125;-59
2023/06/30 06:40:34;;;;;;;2.20;1.10;;;;;;;15.84;85.35;99780.78;5041960;28;20829;-62
2023/06/30 06:43:04;;;;;;;4.27;1.10;;;;;;;16.09;86.07;99800.72;5031550;28;20318;-60
2023/06/30 06:45:38;;;;;;;3.30;1.53;;;;;;;15.97;84.61;99796.88;5040682;28;20291;-60
2023/06/30 06:48:23;;;;;;;1.43;1.10;;;;;;;15.62;83.60;99717.66;5040402;28;20293;-57
2023/06/30 06:50:54;;;;;;;6.90;1.40;;;;;;;15.83;85.57;99773.81;5030973;28;20287;-59
2023/06/30 06:53:27;;;;;;;6.73;1.60;;;;;;;15.78;86.25;99786.34;5036642;28;20397;-61
2023/06/30 06:56:02;;;;;;;7.23;1.77;;;;;;;15.63;85.26;99787.00;5031184;28;20607;-61
2023/06/30 06:58:36;;;;;;;4.10;1.80;;;;;;;15.00;86.41;99703.78;5039899;28;20784;-62
2023/06/30 07:01:07;;;;;;;2.73;1.40;;;;;;;15.41;87.77;99761.63;5031233;28;20617;-61
2023/06/30 07:03:37;;;;;;;35.77;27.47;;;;;;;15.46;87.56;99769.31;5030137;28;20749;-60
2023/06/30 07:06:08;;;;;;;3.83;2.73;;;;;;;15.36;88.41;99758.34;5041780;28;20286;-58
2023/06/30 07:08:39;;;;;;;29.77;19.03;;;;;;;15.15;89.22;99754.88;5030905;28;20393;-61
2023/06/30 07:11:12;;;;;;;5.80;2.17;;;;;;;15.12;89.38;99759.41;5041351;28;20382;-58
2023/06/30 07:13:43;;;;;;;6.90;4.73;;;;;;;15.18;89.80;99761.78;5030632;28;20395;-61
2023/06/30 07:16:17;;;;;;;6.87;6.17;;;;;;;15.09;90.57;99760.38;5041343;28;20372;-62
2023/06/30 07:18:48;;;;;;;3.57;2.27;;;;;;;15.00;90.49;99751.13;5030806;28;20293;-59
2023/06/30 07:21:20;;;;;;;2.57;1.60;;;;;;;14.85;90.85;99741.22;5041443;28;20823;-59
2023/06/30 07:23:54;;;;;;;3.50;2.83;;;;;;;14.70;91.48;99753.25;5031837;28;20740;-62
2023/06/30 07:26:26;;;;;;;3.97;2.27;;;;;;;14.72;92.29;99755.81;5040905;28;20716;-61
2023/06/30 07:28:57;;;;;;;7.60;3.53;;;;;;;14.63;92.35;99750.03;5030264;28;20315;-59
2023/06/30 07:31:30;;;;;;;5.90;4.13;;;;;;;14.33;92.61;99703.94;5040934;28;20385;-61
2023/06/30 07:34:01;;;;;;;2.57;1.90;;;;;;;14.02;93.09;99674.50;5030510;28;20294;-60
2023/06/30 07:36:31;;;;;;;2.30;1.40;;;;;;;14.20;94.14;99743.84;5041278;28;20279;-57
2023/06/30 07:39:03;;;;;;;4.57;1.87;;;;;;;14.20;95.59;99741.22;5017801;28;20993;-58
2023/06/30 07:41:35;;;;;;;4.23;1.80;;;;;;;14.14;94.95;99749.34;5039023;28;20362;-61
2023/06/30 07:44:06;;;;;;;3.70;1.70;;;;;;;14.11;95.87;99744.22;5028962;28;20653;-58
2023/06/30 07:46:37;;;;;;;2.87;1.80;;;;;;;14.20;95.81;99733.34;5032346;28;20294;-58
2023/06/30 07:49:07;;;;;;;4.70;1.80;;;;;;;14.14;95.09;99738.84;5041203;28;20344;-60
2023/06/30 07:51:38;;;;;;;2.97;1.47;;;;;;;14.20;95.86;99724.59;5030017;28;20766;-58
2023/06/30 07:54:09;;;;;;;2.57;1.40;;;;;;;14.26;95.91;99727.00;5040405;28;20356;-59
2023/06/30 07:56:41;;;;;;;4.67;1.77;;;;;;;14.15;95.49;99719.53;5030006;28;20783;-59
2023/06/30 07:59:11;;;;;;;4.20;1.80;;;;;;;14.33;96.27;99732.88;5040847;28;20295;-61
2023/06/30 08:01:42;;;;;;;5.37;2.93;;;;;;;14.29;95.56;99718.13;5029575;28;20762;-58
2023/06/30 08:04:13;;;;;;;4.17;3.23;;;;;;;14.27;96.11;99727.84;5040598;28;20352;-59
2023/06/30 08:06:44;;;;;;;4.93;2.20;;;;;;;14.16;96.39;99715.97;5030062;28;20282;-60
2023/06/30 08:09:15;;;;;;;4.30;1.83;;;;;;;14.17;96.52;99722.94;5040102;28;20753;-60
2023/06/30 08:11:47;;;;;;;3.27;1.77;;;;;;;14.11;96.34;99728.44;5030278;28;20642;-61
2023/06/30 08:14:17;;;;;;;3.63;1.70;;;;;;;14.05;97.05;99723.41;5040406;28;20314;-62
2023/06/30 08:16:48;;;;;;;5.33;1.70;;;;;;;13.95;97.26;99716.81;5028435;28;20326;-58
2023/06/30 08:19:19;;;;;;;3.13;2.13;;;;;;;13.82;98.05;99725.16;5039759;28;20278;-60
2023/06/30 08:22:13;;;;;;;6.10;1.60;;;;;;;13.72;98.40;99725.59;5020051;28;20286;-60
2023/06/30 08:24:45;;;;;;;2.57;1.70;;;;;;;13.58;99.49;99726.13;5029381;28;20662;-61
2023/06/30 08:27:18;;;;;;;2.10;1.70;;;;;;;13.62;99.83;99730.31;5039871;28;20291;-58
2023/06/30 08:29:49;;;;;;;1.93;1.73;;;;;;;13.57;100.00;99727.88;5028797;28;20303;-63
2023/06/30 08:32:21;;;;;;;4.67;3.40;;;;;;;13.53;100.00;99731.53;5040087;28;20302;-60
2023/06/30 08:34:52;;;;;;;3.73;2.07;;;;;;;13.49;100.00;99724.69;5029733;28;20279;-59
2023/06/30 08:37:23;;;;;;;3.97;2.20;;;;;;;13.18;100.00;99693.44;5039953;28;20364;-60
2023/06/30 08:39:54;;;;;;;5.70;2.17;;;;;;;13.45;100.00;99738.81;5028596;28;20283;-60
2023/06/30 08:42:32;;;;;;;4.22;2.10;;;;;;;13.38;100.00;99727.69;5040046;28;20656;-58
2023/06/30 08:45:05;;;;;;;5.20;1.70;;;;;;;13.38;100.00;99743.44;5028514;28;20071;-59
2023/06/30 08:47:36;;;;;;;2.72;1.70;;;;;;;13.33;100.00;99731.41;5035526;28;20355;-59
2023/06/30 08:50:08;;;;;;;1.73;1.40;;;;;;;13.24;100.00;99724.69;5038543;28;20057;-60
2023/06/30 08:52:39;;;;;;;2.47;1.45;;;;;;;13.24;100.00;99729.06;5028411;28;20287;-58
2023/06/30 08:55:10;;;;;;;4.93;1.90;;;;;;;13.21;100.00;99735.28;5038888;28;20048;-58
2023/06/30 08:57:44;;;;;;;6.60;1.63;;;;;;;12.62;100.00;99635.97;5027990;28;20367;-59
2023/06/30 09:00:16;;;;;;;3.43;1.57;;;;;;;13.21;100.00;99756.28;5038045;28;20068;-59
2023/06/30 09:06:20;;;;;;;4.15;1.80;;;;;;;13.11;100.00;99740.00;4881471;29;20078;-61
2023/06/30 09:09:01;;;;;;;2.37;1.47;;;;;;;12.96;100.00;99714.31;4873358;29;20078;-61
2023/06/30 09:11:35;;;;;;;4.13;1.52;;;;;;;12.89;100.00;99708.41;4882329;29;20866;-58
2023/06/30 09:14:11;;;;;;;3.37;1.90;;;;;;;13.04;100.00;99737.66;4870161;29;20101;-61
2023/06/30 09:16:43;;;;;;;14.00;11.03;;;;;;;13.04;100.00;99732.41;4872743;29;20299;-60
2023/06/30 09:19:17;;;;;;;9.05;7.97;;;;;;;12.70;100.00;99717.81;4882561;29;20803;-60
2023/06/30 09:21:50;;;;;;;9.23;8.30;;;;;;;12.66;100.00;99700.50;4873058;29;20060;-60
2023/06/30 09:24:22;;;;;;;16.45;13.93;;;;;;;12.84;100.00;99747.06;4882626;29;20048;-58
2023/06/30 09:26:57;;;;;;;16.10;10.50;;;;;;;12.80;100.00;99750.69;4873110;29;20052;-61
2023/06/30 09:29:36;;;;;;;5.30;3.53;;;;;;;12.77;100.00;99739.44;4879779;29;20513;-59
2023/06/30 09:32:31;;;;;;;5.90;3.55;;;;;;;12.69;100.00;99737.09;4856915;29;20064;-60
2023/06/30 09:35:08;;;;;;;6.95;5.25;;;;;;;12.70;100.00;99744.03;4868690;29;20145;-58
2023/06/30 09:37:50;;;;;;;4.53;3.33;;;;;;;12.62;100.00;99735.56;4869713;29;20043;-59
2023/06/30 09:40:27;;;;;;;9.05;5.75;;;;;;;12.71;100.00;99761.50;4882453;29;20052;-60
2023/06/30 09:42:59;;;;;;;4.90;3.33;;;;;;;12.67;100.00;99755.47;4971342;28;20052;-60
2023/06/30 09:45:32;;;;;;;4.18;2.15;;;;;;;12.61;100.00;99762.72;5029070;28;20408;-60
2023/06/30 09:48:04;;;;;;;7.20;2.28;;;;;;;12.57;100.00;99756.69;5009498;28;20760;-60
2023/06/30 09:50:37;;;;;;;7.10;2.40;;;;;;;12.59;100.00;99761.91;5032388;28;20041;-57
2023/06/30 09:53:10;;;;;;;3.73;2.40;;;;;;;12.55;100.00;99755.03;5037801;28;20044;-61
2023/06/30 09:55:51;;;;;;;3.60;2.53;;;;;;;12.63;100.00;99758.25;5026464;28;20742;-56
2023/06/30 09:58:23;;;;;;;5.40;2.83;;;;;;;12.55;100.00;99755.03;5037858;28;20052;-57
2023/06/30 10:00:56;;;;;;;4.47;2.73;;;;;;;12.21;100.00;99706.34;5026228;28;20548;-58
2023/06/30 10:03:28;;;;;;;6.10;4.25;;;;;;;12.40;100.00;99756.38;5037830;28;20370;-61
2023/06/30 10:06:01;;;;;;;3.63;3.20;;;;;;;12.40;100.00;99767.72;5026781;28;20056;-59
2023/06/30 10:08:33;;;;;;;3.78;2.65;;;;;;;12.45;100.00;99759.69;5038515;28;20601;-58
2023/06/30 10:11:05;;;;;;;8.05;5.38;;;;;;;12.41;100.00;99764.19;5026820;28;20056;-60
2023/06/30 10:13:39;;;;;;;7.57;3.63;;;;;;;12.34;100.00;99757.44;5030702;28;20055;-59
2023/06/30 10:16:22;;;;;;;7.18;4.30;;;;;;;12.26;100.00;99754.22;5037853;28;20049;-59
2023/06/30 10:19:40;;;;;;;5.05;3.55;;;;;;;12.20;100.00;99755.22;5026073;28;20716;-60
2023/06/30 10:22:29;;;;;;;4.55;3.20;;;;;;;12.11;100.00;99752.06;4969803;28;20053;-61
2023/06/30 10:25:04;;;;;;;7.00;3.35;;;;;;;12.09;100.00;99737.25;4965921;28;20377;-59
2023/06/30 10:27:43;;;;;;;5.25;3.08;;;;;;;12.07;100.00;99748.66;4975558;28;20053;-60
2023/06/30 10:30:25;;;;;;;5.60;3.10;;;;;;;12.08;100.00;99755.59;4966807;28;20049;-63
2023/06/30 10:35:51;;;;;;;4.30;3.17;;;;;;;12.15;100.00;99758.91;4964718;28;20053;-58
2023/06/30 10:38:22;;;;;;;6.50;3.70;;;;;;;12.30;100.00;99761.03;4976011;28;20050;-61
2023/06/30 10:41:25;;;;;;;12.65;5.60;;;;;;;12.50;100.00;99763.91;4965433;28;20052;-58
2023/06/30 10:44:10;;;;;;;5.55;3.38;;;;;;;12.45;100.00;99771.03;4965467;28;20056;-58
2023/06/30 10:46:52;;;;;;;4.82;3.08;;;;;;;12.34;100.00;99778.41;4965211;28;20065;-61
2023/06/30 10:49:31;;;;;;;5.72;2.70;;;;;;;12.19;100.00;99789.34;4976145;28;20069;-60
2023/06/30 10:52:04;;;;;;;4.30;2.30;;;;;;;12.16;100.00;99784.22;4961958;28;20058;-60
2023/06/30 10:54:42;;;;;;;34.40;28.98;;;;;;;12.13;100.00;99786.91;4955149;28;20046;-59
2023/06/30 10:57:14;;;;;;;17.25;15.52;;;;;;;12.17;100.00;99786.75;4961756;28;20141;-60
2023/06/30 10:59:47;;;;;;;11.32;10.23;;;;;;;12.23;100.00;99780.47;5011174;28;20158;-61
2023/06/30 11:02:25;;;;;;;5.45;3.38;;;;;;;11.71;100.00;99708.75;5031884;28;20056;-61
2023/06/30 11:05:20;;;;;;;9.43;2.90;;;;;;;11.96;100.00;99775.19;5027643;28;20785;-61
2023/06/30 11:07:53;;;;;;;3.83;2.78;;;;;;;11.91;100.00;99782.31;5026541;28;20140;-60
2023/06/30 11:10:35;;;;;;;5.68;3.67;;;;;;;11.62;100.00;99752.56;5037736;28;20056;-59
2023/06/30 11:13:09;;;;;;;8.88;4.40;;;;;;;12.05;100.00;99808.94;5020841;28;20187;-61
2023/06/30 11:15:47;;;;;;;4.47;3.10;;;;;;;12.05;100.00;99808.94;5030905;28;20503;-60
2023/06/30 11:18:24;;;;;;;6.32;3.08;;;;;;;12.08;100.00;99807.97;5041356;28;20488;-60
2023/06/30 11:21:05;;;;;;;4.00;2.80;;;;;;;12.08;100.00;99793.16;5031149;28;20076;-61
2023/06/30 11:23:39;;;;;;;5.25;2.60;;;;;;;11.96;100.00;99762.09;5030784;28;20382;-59
2023/06/30 11:26:14;;;;;;;3.83;2.58;;;;;;;12.05;100.00;99788.00;5041782;28;20122;-60
2023/06/30 11:28:49;;;;;;;2.80;2.50;;;;;;;11.93;100.00;99772.66;5030210;28;20072;-58
2023/06/30 11:31:41;;;;;;;9.02;3.53;;;;;;;11.91;100.00;99781.47;5040849;28;20160;-60
2023/06/30 11:34:22;;;;;;;4.72;2.60;;;;;;;11.85;100.00;99769.38;5030157;28;20059;-59
2023/06/30 11:36:56;;;;;;;4.68;2.63;;;;;;;11.86;100.00;99765.88;5030747;28;20048;-61
2023/06/30 11:39:28;;;;;;;3.60;2.63;;;;;;;11.92;100.00;99781.41;5041206;28;20491;-58
2023/06/30 11:42:00;;;;;;;7.00;2.47;;;;;;;11.95;100.00;99791.78;5030118;28;20048;-60
2023/06/30 11:44:38;;;;;;;3.58;2.97;;;;;;;12.04;100.00;99790.66;5040538;28;20059;-59
2023/06/30 11:47:10;;;;;;;3.55;2.45;;;;;;;11.97;100.00;99787.38;5030971;28;20048;-59
2023/06/30 11:49:43;;;;;;;3.92;2.45;;;;;;;11.94;100.00;99795.31;5029866;28;20052;-61
2023/06/30 11:52:17;;;;;;;4.88;2.70;;;;;;;11.90;100.00;99791.06;5040076;28;20068;-59
2023/06/30 11:54:48;;;;;;;3.45;2.88;;;;;;;11.95;100.00;99796.16;5029334;28;20417;-59
2023/06/30 11:57:20;;;;;;;5.30;2.60;;;;;;;11.96;100.00;99793.53;5040380;28;20091;-60
2023/06/30 11:59:52;;;;;;;3.30;2.15;;;;;;;11.97;100.00;99789.97;5030560;28;20036;-60
2023/06/30 12:02:24;;;;;;;5.60;2.80;;;;;;;11.94;100.00;99790.09;5040515;28;20045;-59